createdAt,value
2018-07-22T00:01:13.213Z,12.77
2018-07-22T00:03:41.699Z,12.30
2018-07-22T00:06:10.075Z,12.53
2018-07-22T00:08:38.453Z,12.20
2018-07-22T00:11:06.730Z,12.57
2018-07-22T00:13:35.637Z,12.57
2018-07-22T00:16:04.513Z,11.73
2018-07-22T00:18:32.897Z,12.17
2018-07-22T00:21:01.273Z,12.67
2018-07-22T00:23:29.841Z,11.87
2018-07-22T00:25:58.226Z,12.13
2018-07-22T00:28:26.655Z,11.83
2018-07-22T00:30:55.009Z,11.93
2018-07-22T00:33:23.694Z,12.17
2018-07-22T00:35:52.050Z,11.60
2018-07-22T00:38:20.534Z,11.27
2018-07-22T00:40:48.818Z,12.60
2018-07-22T00:43:17.222Z,12.30
2018-07-22T00:45:45.687Z,12.50
2018-07-22T00:48:14.063Z,12.37
2018-07-22T00:50:42.325Z,14.10
2018-07-22T00:53:10.587Z,13.60
2018-07-22T00:55:39.088Z,12.83
2018-07-22T00:58:07.918Z,14.00
2018-07-22T01:00:36.228Z,14.40
2018-07-22T01:03:04.839Z,13.90
2018-07-22T01:05:33.125Z,13.80
2018-07-22T01:08:01.612Z,15.03
2018-07-22T01:10:29.980Z,14.70
2018-07-22T01:12:58.470Z,14.30
2018-07-22T01:15:26.850Z,14.03
2018-07-22T01:17:55.228Z,14.27
2018-07-22T01:20:23.987Z,13.83
2018-07-22T01:22:52.510Z,13.97
2018-07-22T01:25:20.924Z,14.50
2018-07-22T01:27:49.251Z,14.47
2018-07-22T01:30:17.958Z,13.43
2018-07-22T01:32:46.672Z,14.07
2018-07-22T01:35:15.021Z,14.47
2018-07-22T01:37:43.699Z,13.33
2018-07-22T01:40:12.094Z,12.27
2018-07-22T01:42:40.781Z,12.33
2018-07-22T01:45:09.462Z,13.27
2018-07-22T01:47:37.948Z,12.83
2018-07-22T01:50:06.391Z,12.17
2018-07-22T01:52:34.910Z,12.60
2018-07-22T01:55:03.286Z,11.93
2018-07-22T01:57:31.658Z,11.97
2018-07-22T02:00:00.355Z,11.60
2018-07-22T02:02:28.928Z,11.80
2018-07-22T02:04:57.512Z,11.93
2018-07-22T02:07:25.800Z,11.93
2018-07-22T02:09:54.294Z,11.57
2018-07-22T02:12:22.561Z,11.43
2018-07-22T02:14:50.928Z,10.97
2018-07-22T02:17:19.302Z,11.57
2018-07-22T02:19:47.682Z,11.40
2018-07-22T02:22:16.053Z,10.90
2018-07-22T02:24:44.751Z,11.00
2018-07-22T02:27:13.236Z,10.40
2018-07-22T02:29:41.617Z,10.67
2018-07-22T02:32:10.202Z,10.70
2018-07-22T02:34:38.881Z,11.20
2018-07-22T02:37:07.367Z,11.17
2018-07-22T02:39:35.774Z,10.33
2018-07-22T02:42:04.076Z,10.17
2018-07-22T02:44:32.504Z,9.83
2018-07-22T02:47:01.119Z,10.30
2018-07-22T02:49:29.948Z,10.50
2018-07-22T02:51:58.467Z,10.10
2018-07-22T02:54:27.150Z,10.70
2018-07-22T02:56:55.543Z,10.43
2018-07-22T02:59:23.822Z,10.37
2018-07-22T03:01:52.483Z,9.67
2018-07-22T03:04:21.283Z,10.20
2018-07-22T03:06:49.649Z,10.47
2018-07-22T03:09:18.143Z,10.40
2018-07-22T03:11:47.035Z,10.47
2018-07-22T03:14:15.854Z,9.53
2018-07-22T03:16:44.161Z,9.47
2018-07-22T03:19:12.818Z,10.43
2018-07-22T03:21:41.481Z,10.03
2018-07-22T03:24:10.475Z,9.40
2018-07-22T03:26:38.857Z,9.83
2018-07-22T03:29:07.226Z,9.97
2018-07-22T03:31:35.711Z,9.53
2018-07-22T03:34:03.994Z,8.93
2018-07-22T03:36:32.364Z,9.67
2018-07-22T03:39:00.793Z,9.17
2018-07-22T03:41:29.120Z,10.10
2018-07-22T03:43:57.406Z,9.97
2018-07-22T03:46:26.214Z,9.30
2018-07-22T03:48:54.570Z,9.67
2018-07-22T03:51:22.962Z,9.73
2018-07-22T03:53:51.432Z,9.07
2018-07-22T03:56:19.812Z,9.07
2018-07-22T03:58:48.084Z,8.60
2018-07-22T04:01:16.469Z,9.17
2018-07-22T04:03:44.757Z,9.33
2018-07-22T04:06:13.394Z,9.73
2018-07-22T04:08:41.913Z,8.57
2018-07-22T04:11:10.178Z,7.97
2018-07-22T04:13:38.489Z,8.73
2018-07-22T04:16:06.744Z,7.83
2018-07-22T04:18:40.353Z,8.80
2018-07-22T04:21:08.719Z,8.80
2018-07-22T04:23:37.327Z,8.43
2018-07-22T04:26:05.895Z,8.63
2018-07-22T04:28:34.198Z,8.57
2018-07-22T04:31:02.858Z,7.80
2018-07-22T04:33:31.290Z,8.13
2018-07-22T04:35:59.601Z,8.20
2018-07-22T04:38:27.905Z,8.73
2018-07-22T04:40:56.417Z,8.20
2018-07-22T04:43:24.747Z,8.50
2018-07-22T04:45:53.169Z,8.57
2018-07-22T04:48:21.810Z,8.50
2018-07-22T04:50:51.545Z,8.33
2018-07-22T04:53:19.821Z,8.90
2018-07-22T04:55:48.176Z,8.13
2018-07-22T04:58:16.687Z,7.87
2018-07-22T05:00:44.976Z,8.27
2018-07-22T05:03:14.057Z,8.20
2018-07-22T05:05:42.333Z,8.43
2018-07-22T05:08:11.004Z,8.27
2018-07-22T05:10:39.697Z,8.57
2018-07-22T05:13:08.455Z,8.90
2018-07-22T05:15:36.723Z,8.17
2018-07-22T05:18:05.244Z,8.20
2018-07-22T05:20:33.534Z,8.60
2018-07-22T05:23:01.889Z,8.17
2018-07-22T05:25:30.177Z,8.07
2018-07-22T05:27:58.456Z,8.37
2018-07-22T05:30:27.023Z,7.73
2018-07-22T05:32:55.520Z,8.70
2018-07-22T05:35:24.206Z,8.57
2018-07-22T05:37:52.495Z,8.37
2018-07-22T05:40:20.862Z,8.53
2018-07-22T05:42:49.242Z,8.30
2018-07-22T05:45:17.629Z,8.87
2018-07-22T05:47:45.989Z,8.93
2018-07-22T05:50:14.376Z,9.07
2018-07-22T05:52:43.094Z,8.93
2018-07-22T05:55:11.372Z,8.50
2018-07-22T05:57:39.805Z,8.50
2018-07-22T06:00:08.705Z,9.00
2018-07-22T06:02:37.186Z,9.10
2018-07-22T06:05:05.590Z,8.43
2018-07-22T06:07:33.865Z,8.50
2018-07-22T06:10:02.441Z,8.90
2018-07-22T06:12:30.826Z,8.63
2018-07-22T06:14:59.613Z,9.27
2018-07-22T06:17:28.196Z,8.30
2018-07-22T06:19:56.686Z,8.00
2018-07-22T06:22:24.951Z,8.27
2018-07-22T06:24:53.234Z,8.40
2018-07-22T06:27:21.625Z,8.57
2018-07-22T06:29:49.992Z,8.30
2018-07-22T06:32:18.388Z,8.70
2018-07-22T06:34:46.693Z,9.10
2018-07-22T06:37:15.465Z,9.50
2018-07-22T06:39:43.917Z,9.67
2018-07-22T06:42:12.218Z,9.03
2018-07-22T06:44:40.612Z,9.17
2018-07-22T06:47:08.943Z,8.80
2018-07-22T06:49:37.373Z,8.90
2018-07-22T06:52:05.707Z,9.20
2018-07-22T06:54:33.994Z,9.13
2018-07-22T06:57:02.786Z,8.67
2018-07-22T06:59:31.050Z,8.67
2018-07-22T07:01:59.645Z,8.83
2018-07-22T07:04:27.951Z,8.37
2018-07-22T07:06:56.309Z,8.50
2018-07-22T07:09:25.015Z,8.83
2018-07-22T07:11:53.371Z,8.30
2018-07-22T07:14:21.702Z,8.77
2018-07-22T07:16:50.124Z,8.93
2018-07-22T07:19:18.517Z,8.67
2018-07-22T07:21:46.797Z,9.10
2018-07-22T07:24:15.083Z,9.20
2018-07-22T07:26:44.078Z,8.00
2018-07-22T07:29:12.452Z,8.87
2018-07-22T07:31:41.013Z,9.37
2018-07-22T07:34:09.401Z,8.83
2018-07-22T07:36:37.758Z,8.07
2018-07-22T07:39:08.058Z,7.97
2018-07-22T07:41:37.504Z,8.20
2018-07-22T07:44:05.978Z,8.10
2018-07-22T07:46:34.328Z,8.03
2018-07-22T07:49:02.793Z,8.37
2018-07-22T07:51:31.128Z,8.30
2018-07-22T07:53:59.604Z,7.97
2018-07-22T07:56:27.932Z,8.43
2018-07-22T07:58:56.599Z,7.73
2018-07-22T08:01:24.926Z,7.50
2018-07-22T08:03:53.366Z,8.30
2018-07-22T08:06:21.804Z,7.93
2018-07-22T08:08:50.401Z,8.77
2018-07-22T08:11:18.687Z,7.80
2018-07-22T08:13:47.139Z,7.77
2018-07-22T08:16:15.632Z,7.73
2018-07-22T08:18:44.012Z,7.80
2018-07-22T08:21:12.401Z,7.30
2018-07-22T08:23:40.703Z,7.07
2018-07-22T08:26:09.059Z,7.30
2018-07-22T08:28:42.714Z,7.53
2018-07-22T08:31:11.009Z,7.40
2018-07-22T08:33:39.702Z,8.03
2018-07-22T08:36:08.390Z,7.23
2018-07-22T08:38:36.641Z,6.63
2018-07-22T08:41:05.171Z,7.73
2018-07-22T08:43:33.844Z,7.23
2018-07-22T08:46:02.330Z,7.17
2018-07-22T08:48:30.607Z,7.00
2018-07-22T08:50:58.983Z,7.40
2018-07-22T08:53:27.369Z,7.10
2018-07-22T08:55:55.740Z,7.10
2018-07-22T08:58:24.023Z,6.87
2018-07-22T09:00:52.494Z,6.63
2018-07-22T09:03:20.870Z,7.03
2018-07-22T09:05:49.317Z,6.90
2018-07-22T09:08:17.642Z,7.03
2018-07-22T09:10:46.017Z,7.63
2018-07-22T09:13:14.717Z,6.37
2018-07-22T09:15:43.072Z,7.07
2018-07-22T09:18:11.750Z,6.70
2018-07-22T09:20:40.144Z,7.00
2018-07-22T09:23:08.394Z,6.67
2018-07-22T09:25:36.682Z,7.07
2018-07-22T09:28:05.422Z,6.20
2018-07-22T09:30:33.981Z,6.63
2018-07-22T09:33:02.670Z,6.93
2018-07-22T09:35:31.150Z,6.97
2018-07-22T09:37:59.434Z,6.20
2018-07-22T09:40:28.101Z,6.83
2018-07-22T09:42:56.503Z,6.50
2018-07-22T09:45:24.933Z,6.10
2018-07-22T09:47:53.222Z,6.23
2018-07-22T09:50:21.668Z,6.03
2018-07-22T09:52:50.366Z,6.00
2018-07-22T09:55:19.054Z,5.90
2018-07-22T09:57:47.486Z,6.17
2018-07-22T10:00:20.043Z,5.77
2018-07-22T10:02:48.336Z,5.70
2018-07-22T10:05:16.616Z,5.90
2018-07-22T10:07:44.930Z,5.67
2018-07-22T10:10:13.684Z,6.17
2018-07-22T10:12:42.064Z,5.50
2018-07-22T10:15:10.443Z,5.70
2018-07-22T10:17:39.480Z,5.90
2018-07-22T10:20:07.816Z,5.73
2018-07-22T10:22:36.085Z,6.00
2018-07-22T10:25:04.473Z,6.00
2018-07-22T10:27:32.957Z,5.40
2018-07-22T10:30:01.850Z,5.67
2018-07-22T10:32:30.133Z,6.20
2018-07-22T10:34:58.437Z,6.30
2018-07-22T10:37:26.913Z,6.40
2018-07-22T10:39:55.467Z,6.20
2018-07-22T10:42:23.846Z,5.90
2018-07-22T10:44:52.746Z,6.10
2018-07-22T10:47:21.219Z,6.13
2018-07-22T10:49:50.008Z,5.90
2018-07-22T10:52:18.901Z,5.87
2018-07-22T10:54:47.279Z,5.93
2018-07-22T10:57:15.537Z,5.90
2018-07-22T10:59:43.833Z,6.43
2018-07-22T11:02:12.111Z,6.43
2018-07-22T11:04:40.421Z,5.80
2018-07-22T11:07:08.686Z,6.10
2018-07-22T11:09:37.441Z,6.30
2018-07-22T11:12:05.946Z,6.27
2018-07-22T11:14:34.598Z,6.37
2018-07-22T11:17:03.005Z,6.30
2018-07-22T11:19:31.690Z,6.30
2018-07-22T11:22:00.375Z,6.45
2018-07-22T11:24:28.961Z,6.33
2018-07-22T11:26:57.369Z,6.37
2018-07-22T11:29:25.754Z,6.37
2018-07-22T11:31:54.168Z,6.80
2018-07-22T11:34:22.793Z,6.40
2018-07-22T11:36:51.184Z,6.60
2018-07-22T11:39:19.509Z,6.73
2018-07-22T11:41:48.168Z,6.47
2018-07-22T11:44:16.987Z,6.27
2018-07-22T11:46:45.399Z,6.03
2018-07-22T11:49:14.039Z,6.43
2018-07-22T11:51:42.335Z,6.70
2018-07-22T11:54:10.773Z,6.80
2018-07-22T11:56:39.155Z,6.43
2018-07-22T11:59:07.522Z,6.60
2018-07-22T12:01:35.984Z,7.37
2018-07-22T12:04:04.578Z,6.80
2018-07-22T12:06:32.886Z,6.70
2018-07-22T12:09:01.506Z,18.03
2018-07-22T12:11:30.009Z,20.03
2018-07-22T12:13:58.437Z,15.50
2018-07-22T12:16:27.417Z,13.10
2018-07-22T12:18:55.982Z,12.13
2018-07-22T12:21:24.374Z,10.67
2018-07-22T12:23:53.870Z,9.87
2018-07-22T12:26:22.667Z,9.83
2018-07-22T12:28:51.348Z,8.33
2018-07-22T12:31:19.911Z,8.60
2018-07-22T12:33:48.700Z,8.00
2018-07-22T12:36:17.128Z,8.30
2018-07-22T12:38:46.070Z,8.30
2018-07-22T12:41:14.457Z,8.20
2018-07-22T12:43:43.442Z,8.03
2018-07-22T12:46:11.937Z,7.50
2018-07-22T12:48:40.506Z,7.83
2018-07-22T12:51:09.010Z,7.40
2018-07-22T12:53:37.621Z,7.27
2018-07-22T12:56:06.602Z,6.70
2018-07-22T12:58:34.983Z,7.57
2018-07-22T13:01:03.729Z,7.70
2018-07-22T13:03:32.642Z,7.53
2018-07-22T13:06:01.355Z,7.53
2018-07-22T13:08:30.008Z,8.30
2018-07-22T13:10:59.324Z,8.27
2018-07-22T13:13:28.349Z,7.83
2018-07-22T13:15:57.578Z,7.63
2018-07-22T13:18:26.209Z,8.20
2018-07-22T13:20:54.679Z,8.07
2018-07-22T13:23:23.151Z,7.73
2018-07-22T13:25:52.344Z,7.87
2018-07-22T13:28:20.758Z,7.90
2018-07-22T13:30:49.433Z,7.83
2018-07-22T13:33:18.133Z,7.50
2018-07-22T13:35:46.811Z,7.73
2018-07-22T13:38:15.564Z,8.10
2018-07-22T13:40:44.154Z,8.07
2018-07-22T13:43:12.534Z,7.90
2018-07-22T13:45:40.923Z,8.60
2018-07-22T13:48:10.340Z,7.33
2018-07-22T13:50:39.326Z,7.90
2018-07-22T13:53:07.923Z,7.73
2018-07-22T13:55:36.277Z,8.23
2018-07-22T13:58:04.771Z,7.83
2018-07-22T14:00:33.372Z,7.80
2018-07-22T14:03:01.844Z,8.53
2018-07-22T14:05:31.010Z,8.30
2018-07-22T14:07:59.849Z,8.23
2018-07-22T14:10:28.711Z,8.27
2018-07-22T14:12:57.089Z,7.93
2018-07-22T14:15:25.467Z,7.93
2018-07-22T14:17:53.966Z,8.53
2018-07-22T14:20:22.591Z,7.70
2018-07-22T14:22:51.229Z,8.30
2018-07-22T14:25:19.606Z,8.00
2018-07-22T14:27:48.611Z,7.77
2018-07-22T14:30:17.317Z,7.50
2018-07-22T14:32:45.671Z,8.37
2018-07-22T14:35:14.074Z,8.47
2018-07-22T14:37:43.334Z,8.40
2018-07-22T14:40:12.136Z,7.50
2018-07-22T14:42:40.739Z,7.83
2018-07-22T14:45:09.765Z,7.77
2018-07-22T14:47:38.465Z,7.67
2018-07-22T14:50:07.409Z,8.27
2018-07-22T14:52:35.869Z,8.23
2018-07-22T14:55:04.473Z,8.10
2018-07-22T14:57:32.979Z,8.00
2018-07-22T15:00:01.660Z,7.40
2018-07-22T15:02:30.210Z,8.20
2018-07-22T15:04:58.737Z,8.23
2018-07-22T15:07:27.328Z,7.87
2018-07-22T15:09:55.996Z,7.53
2018-07-22T15:12:24.449Z,8.40
2018-07-22T15:14:53.050Z,7.47
2018-07-22T15:17:21.439Z,7.43
2018-07-22T15:19:50.124Z,8.03
2018-07-22T15:22:18.466Z,7.53
2018-07-22T15:24:47.382Z,7.87
2018-07-22T15:27:16.162Z,8.27
2018-07-22T15:29:44.809Z,8.00
2018-07-22T15:32:13.273Z,7.77
2018-07-22T15:34:41.746Z,7.57
2018-07-22T15:37:10.624Z,7.60
2018-07-22T15:39:39.909Z,8.20
2018-07-22T15:42:08.279Z,7.67
2018-07-22T15:44:37.278Z,7.97
2018-07-22T15:47:06.104Z,7.83
2018-07-22T15:49:34.952Z,8.20
2018-07-22T15:52:03.342Z,7.83
2018-07-22T15:54:31.855Z,7.37
2018-07-22T15:57:00.743Z,8.10
2018-07-22T15:59:29.391Z,8.67
2018-07-22T16:01:57.913Z,8.50
2018-07-22T16:04:26.810Z,8.10
2018-07-22T16:06:55.623Z,8.60
2018-07-22T16:09:24.448Z,7.93
2018-07-22T16:11:53.143Z,8.20
2018-07-22T16:14:21.577Z,8.53
2018-07-22T16:16:50.542Z,8.00
2018-07-22T16:19:19.209Z,7.77
2018-07-22T16:21:47.897Z,8.00
2018-07-22T16:24:16.263Z,7.77
2018-07-22T16:26:45.242Z,8.17
2018-07-22T16:29:13.657Z,8.27
2018-07-22T16:31:42.625Z,8.33
2018-07-22T16:34:11.034Z,8.00
2018-07-22T16:36:40.068Z,7.57
2018-07-22T16:39:09.710Z,7.47
2018-07-22T16:41:38.741Z,7.57
2018-07-22T16:44:07.762Z,7.17
2018-07-22T16:46:36.730Z,7.33
2018-07-22T16:49:05.373Z,7.30
2018-07-22T16:51:34.130Z,7.30
2018-07-22T16:54:02.647Z,7.80
2018-07-22T16:56:31.438Z,7.47
2018-07-22T16:59:00.620Z,7.40
2018-07-22T17:01:29.343Z,7.53
2018-07-22T17:03:57.734Z,7.37
2018-07-22T17:06:26.689Z,6.97
2018-07-22T17:08:55.796Z,7.53
2018-07-22T17:11:24.375Z,7.43
2018-07-22T17:13:52.907Z,7.27
2018-07-22T17:16:21.857Z,6.73
2018-07-22T17:18:50.423Z,7.00
2018-07-22T17:21:19.351Z,7.50
2018-07-22T17:23:48.157Z,7.07
2018-07-22T17:26:17.110Z,7.00
2018-07-22T17:28:45.804Z,6.80
2018-07-22T17:31:14.578Z,6.87
2018-07-22T17:33:43.158Z,6.90
2018-07-22T17:36:11.665Z,7.00
2018-07-22T17:38:40.413Z,6.90
2018-07-22T17:41:08.917Z,6.93
2018-07-22T17:43:37.626Z,6.90
2018-07-22T17:46:06.611Z,7.00
2018-07-22T17:48:35.142Z,7.27
2018-07-22T17:51:03.801Z,7.07
2018-07-22T17:53:32.418Z,7.23
2018-07-22T17:56:01.066Z,6.80
2018-07-22T17:58:29.424Z,6.50
2018-07-22T18:00:57.815Z,6.93
2018-07-22T18:03:27.403Z,7.30
2018-07-22T18:05:55.809Z,7.33
2018-07-22T18:08:24.320Z,7.23
2018-07-22T18:10:53.734Z,7.20
2018-07-22T18:13:22.182Z,7.00
2018-07-22T18:15:50.562Z,6.77
2018-07-22T18:18:19.213Z,6.80
2018-07-22T18:20:48.466Z,7.00
2018-07-22T18:23:16.916Z,7.60
2018-07-22T18:25:46.232Z,6.97
2018-07-22T18:28:16.059Z,6.60
2018-07-22T18:30:45.007Z,6.70
2018-07-22T18:33:14.087Z,7.63
2018-07-22T18:35:42.628Z,7.37
2018-07-22T18:38:11.185Z,7.10
2018-07-22T18:40:39.558Z,7.47
2018-07-22T18:43:07.964Z,7.73
2018-07-22T18:45:36.620Z,7.43
2018-07-22T18:48:05.321Z,7.30
2018-07-22T18:50:34.352Z,6.97
2018-07-22T18:53:02.996Z,7.07
2018-07-22T18:55:31.377Z,7.27
2018-07-22T18:58:00.098Z,7.03
2018-07-22T19:00:28.863Z,6.90
2018-07-22T19:02:57.549Z,7.13
2018-07-22T19:05:26.176Z,7.47
2018-07-22T19:07:55.154Z,6.70
2018-07-22T19:10:23.799Z,6.50
2018-07-22T19:12:52.725Z,7.13
2018-07-22T19:15:21.654Z,6.70
2018-07-22T19:17:50.458Z,7.00
2018-07-22T19:20:18.881Z,7.20
2018-07-22T19:22:47.811Z,6.70
2018-07-22T19:25:16.644Z,6.47
2018-07-22T19:27:45.631Z,7.10
2018-07-22T19:30:14.347Z,6.43
2018-07-22T19:32:43.506Z,6.90
2018-07-22T19:35:12.239Z,6.67
2018-07-22T19:37:40.901Z,6.43
2018-07-22T19:40:09.406Z,7.03
2018-07-22T19:42:37.941Z,7.10
2018-07-22T19:45:06.379Z,6.43
2018-07-22T19:47:35.120Z,6.70
2018-07-22T19:50:04.121Z,6.50
2018-07-22T19:52:32.748Z,7.07
2018-07-22T19:55:01.477Z,6.87
2018-07-22T19:57:30.179Z,6.73
2018-07-22T19:59:58.902Z,6.97
2018-07-22T20:02:27.450Z,6.37
2018-07-22T20:04:56.127Z,6.97
2018-07-22T20:07:24.561Z,6.97
2018-07-22T20:09:53.386Z,7.23
2018-07-22T20:12:21.977Z,7.13
2018-07-22T20:14:50.898Z,7.13
2018-07-22T20:17:19.425Z,7.13
2018-07-22T20:19:48.273Z,6.80
2018-07-22T20:22:16.763Z,6.87
2018-07-22T20:24:45.922Z,7.17
2018-07-22T20:27:14.301Z,7.33
2018-07-22T20:29:43.608Z,7.30
2018-07-22T20:32:12.611Z,7.83
2018-07-22T20:34:41.106Z,6.87
2018-07-22T20:37:09.806Z,6.87
2018-07-22T20:39:38.469Z,7.20
2018-07-22T20:42:07.653Z,7.30
2018-07-22T20:44:36.049Z,7.37
2018-07-22T20:47:05.166Z,7.10
2018-07-22T20:49:33.874Z,7.00
2018-07-22T20:52:03.014Z,7.10
2018-07-22T20:54:31.786Z,7.40
2018-07-22T20:57:00.411Z,7.27
2018-07-22T20:59:28.785Z,7.93
2018-07-22T21:01:57.478Z,6.97
2018-07-22T21:04:25.852Z,7.40
2018-07-22T21:06:54.601Z,7.20
2018-07-22T21:09:23.374Z,7.70
2018-07-22T21:11:57.261Z,7.47
2018-07-22T21:14:26.185Z,7.83
2018-07-22T21:16:55.157Z,7.50
2018-07-22T21:19:23.913Z,7.83
2018-07-22T21:21:52.633Z,7.90
2018-07-22T21:24:21.318Z,7.73
2018-07-22T21:26:49.864Z,7.23
2018-07-22T21:29:18.857Z,7.43
2018-07-22T21:31:47.698Z,7.60
2018-07-22T21:34:16.576Z,7.70
2018-07-22T21:36:45.318Z,7.30
2018-07-22T21:39:14.014Z,7.80
2018-07-22T21:41:43.747Z,7.80
2018-07-22T21:44:12.621Z,7.87
2018-07-22T21:46:41.549Z,7.70
2018-07-22T21:49:10.280Z,8.47
2018-07-22T21:51:38.601Z,8.20
2018-07-22T21:54:07.292Z,7.53
2018-07-22T21:56:35.960Z,8.47
2018-07-22T21:59:04.323Z,8.03
2018-07-22T22:01:33.002Z,7.97
2018-07-22T22:04:01.632Z,8.27
2018-07-22T22:06:30.408Z,8.47
2018-07-22T22:08:59.208Z,8.47
2018-07-22T22:11:27.847Z,8.57
2018-07-22T22:13:56.492Z,7.87
2018-07-22T22:16:25.173Z,7.50
2018-07-22T22:18:53.925Z,8.23
2018-07-22T22:21:22.577Z,8.20
2018-07-22T22:23:51.572Z,8.03
2018-07-22T22:26:20.617Z,8.03
2018-07-22T22:28:49.233Z,8.17
2018-07-22T22:31:17.666Z,7.70
2018-07-22T22:33:46.471Z,8.27
2018-07-22T22:36:14.976Z,8.27
2018-07-22T22:38:43.673Z,7.90
2018-07-22T22:41:12.105Z,8.20
2018-07-22T22:43:40.738Z,7.53
2018-07-22T22:46:09.788Z,8.77
2018-07-22T22:48:38.409Z,7.83
2018-07-22T22:51:07.206Z,7.80
2018-07-22T22:53:35.788Z,7.50
2018-07-22T22:56:04.474Z,7.93
2018-07-22T22:58:38.387Z,7.73
2018-07-22T23:01:07.143Z,7.83
2018-07-22T23:03:35.759Z,7.97
2018-07-22T23:06:04.465Z,8.27
2018-07-22T23:08:33.102Z,7.27
2018-07-22T23:11:01.625Z,7.40
2018-07-22T23:13:30.375Z,8.13
2018-07-22T23:15:58.882Z,7.73
2018-07-22T23:18:27.322Z,8.27
2018-07-22T23:20:55.752Z,7.83
2018-07-22T23:23:24.334Z,8.20
2018-07-22T23:25:52.885Z,8.60
2018-07-22T23:28:21.476Z,8.07
2018-07-22T23:30:50.133Z,7.80
2018-07-22T23:33:18.971Z,7.40
2018-07-22T23:35:47.505Z,7.67
2018-07-22T23:38:16.166Z,7.67
2018-07-22T23:40:44.861Z,8.20
2018-07-22T23:43:14.165Z,7.80
2018-07-22T23:45:43.436Z,7.90
2018-07-22T23:48:12.476Z,7.23
2018-07-22T23:50:41.095Z,7.17
2018-07-22T23:53:10.376Z,8.13
2018-07-22T23:55:39.700Z,8.30
2018-07-22T23:58:08.408Z,7.63
